sensor_id;sensor_type;location;lat;lon;timestamp;P1;durP1;ratioP1;P2;durP2;ratioP2
79139;SDS011;68546;59.142;37.948;2023-04-07T00:02:24;5.00;;;3.45;;
79139;SDS011;68546;59.142;37.948;2023-04-07T00:04:51;5.07;;;2.78;;
79139;SDS011;68546;59.142;37.948;2023-04-07T00:07:18;5.27;;;3.43;;
79139;SDS011;68546;59.142;37.948;2023-04-07T00:09:44;6.28;;;3.50;;
79139;SDS011;68546;59.142;37.948;2023-04-07T00:12:10;6.55;;;3.42;;
79139;SDS011;68546;59.142;37.948;2023-04-07T00:14:37;7.73;;;4.47;;
79139;SDS011;68546;59.142;37.948;2023-04-07T00:17:03;7.72;;;3.63;;
79139;SDS011;68546;59.142;37.948;2023-04-07T00:19:30;5.40;;;3.90;;
79139;SDS011;68546;59.142;37.948;2023-04-07T00:21:58;5.25;;;3.75;;
79139;SDS011;68546;59.142;37.948;2023-04-07T00:24:24;6.07;;;4.13;;
79139;SDS011;68546;59.142;37.948;2023-04-07T00:26:50;6.18;;;4.53;;
79139;SDS011;68546;59.142;37.948;2023-04-07T00:29:17;6.10;;;4.78;;
79139;SDS011;68546;59.142;37.948;2023-04-07T00:31:43;5.90;;;4.17;;
79139;SDS011;68546;59.142;37.948;2023-04-07T00:34:09;6.20;;;4.60;;
79139;SDS011;68546;59.142;37.948;2023-04-07T00:36:37;6.90;;;4.78;;
79139;SDS011;68546;59.142;37.948;2023-04-07T00:39:03;6.83;;;5.20;;
79139;SDS011;68546;59.142;37.948;2023-04-07T00:41:29;8.70;;;5.28;;
79139;SDS011;68546;59.142;37.948;2023-04-07T00:43:58;7.28;;;5.28;;
79139;SDS011;68546;59.142;37.948;2023-04-07T00:46:25;7.47;;;5.35;;
79139;SDS011;68546;59.142;37.948;2023-04-07T00:48:52;8.38;;;6.10;;
79139;SDS011;68546;59.142;37.948;2023-04-07T00:51:21;8.57;;;6.00;;
79139;SDS011;68546;59.142;37.948;2023-04-07T00:53:48;8.38;;;6.32;;
79139;SDS011;68546;59.142;37.948;2023-04-07T00:56:14;9.50;;;6.90;;
79139;SDS011;68546;59.142;37.948;2023-04-07T00:58:41;10.13;;;6.55;;
79139;SDS011;68546;59.142;37.948;2023-04-07T01:01:08;9.98;;;7.03;;
79139;SDS011;68546;59.142;37.948;2023-04-07T01:03:44;11.17;;;8.17;;
79139;SDS011;68546;59.142;37.948;2023-04-07T01:06:18;9.90;;;8.02;;
79139;SDS011;68546;59.142;37.948;2023-04-07T01:11:38;11.88;;;9.82;;
79139;SDS011;68546;59.142;37.948;2023-04-07T01:14:13;13.43;;;11.02;;
79139;SDS011;68546;59.142;37.948;2023-04-07T01:16:45;14.52;;;10.20;;
79139;SDS011;68546;59.142;37.948;2023-04-07T01:22:12;17.00;;;12.73;;
79139;SDS011;68546;59.142;37.948;2023-04-07T01:30:12;22.00;;;14.57;;
79139;SDS011;68546;59.142;37.948;2023-04-07T01:32:41;15.45;;;12.65;;
79139;SDS011;68546;59.142;37.948;2023-04-07T01:35:12;16.17;;;12.35;;
79139;SDS011;68546;59.142;37.948;2023-04-07T01:37:39;15.80;;;12.27;;
79139;SDS011;68546;59.142;37.948;2023-04-07T01:40:07;17.23;;;13.45;;
79139;SDS011;68546;59.142;37.948;2023-04-07T01:42:35;15.70;;;12.73;;
79139;SDS011;68546;59.142;37.948;2023-04-07T01:45:03;16.05;;;12.52;;
79139;SDS011;68546;59.142;37.948;2023-04-07T01:47:30;19.97;;;13.33;;
79139;SDS011;68546;59.142;37.948;2023-04-07T01:49:58;15.70;;;12.98;;
79139;SDS011;68546;59.142;37.948;2023-04-07T01:52:29;16.83;;;13.20;;
79139;SDS011;68546;59.142;37.948;2023-04-07T01:54:57;17.73;;;14.00;;
79139;SDS011;68546;59.142;37.948;2023-04-07T01:57:23;17.65;;;13.95;;
79139;SDS011;68546;59.142;37.948;2023-04-07T01:59:55;19.50;;;13.90;;
79139;SDS011;68546;59.142;37.948;2023-04-07T02:02:23;20.40;;;14.38;;
79139;SDS011;68546;59.142;37.948;2023-04-07T02:04:53;19.50;;;15.55;;
79139;SDS011;68546;59.142;37.948;2023-04-07T02:07:33;21.80;;;15.60;;
79139;SDS011;68546;59.142;37.948;2023-04-07T02:10:09;23.73;;;18.05;;
79139;SDS011;68546;59.142;37.948;2023-04-07T02:12:38;24.00;;;17.87;;
79139;SDS011;68546;59.142;37.948;2023-04-07T02:15:11;29.40;;;17.88;;
79139;SDS011;68546;59.142;37.948;2023-04-07T02:17:43;23.98;;;17.80;;
79139;SDS011;68546;59.142;37.948;2023-04-07T02:20:13;25.20;;;19.10;;
79139;SDS011;68546;59.142;37.948;2023-04-07T02:22:41;26.13;;;18.73;;
79139;SDS011;68546;59.142;37.948;2023-04-07T02:28:06;30.48;;;22.13;;
79139;SDS011;68546;59.142;37.948;2023-04-07T02:30:32;30.17;;;22.50;;
79139;SDS011;68546;59.142;37.948;2023-04-07T02:33:00;28.17;;;21.08;;
79139;SDS011;68546;59.142;37.948;2023-04-07T02:35:26;28.02;;;20.98;;
79139;SDS011;68546;59.142;37.948;2023-04-07T02:37:53;31.57;;;22.50;;
79139;SDS011;68546;59.142;37.948;2023-04-07T02:40:19;29.42;;;21.52;;
79139;SDS011;68546;59.142;37.948;2023-04-07T02:42:45;27.38;;;20.92;;
79139;SDS011;68546;59.142;37.948;2023-04-07T02:45:12;27.63;;;21.23;;
79139;SDS011;68546;59.142;37.948;2023-04-07T02:47:38;28.92;;;21.63;;
79139;SDS011;68546;59.142;37.948;2023-04-07T02:50:05;28.88;;;21.48;;
79139;SDS011;68546;59.142;37.948;2023-04-07T02:52:34;36.70;;;23.13;;
79139;SDS011;68546;59.142;37.948;2023-04-07T02:55:04;32.58;;;23.75;;
79139;SDS011;68546;59.142;37.948;2023-04-07T02:57:31;29.83;;;22.55;;
79139;SDS011;68546;59.142;37.948;2023-04-07T03:00:00;31.42;;;22.95;;
79139;SDS011;68546;59.142;37.948;2023-04-07T03:02:42;49.60;;;24.77;;
79139;SDS011;68546;59.142;37.948;2023-04-07T03:05:09;32.17;;;23.67;;
79139;SDS011;68546;59.142;37.948;2023-04-07T03:07:35;31.23;;;23.00;;
79139;SDS011;68546;59.142;37.948;2023-04-07T03:10:03;54.13;;;24.43;;
79139;SDS011;68546;59.142;37.948;2023-04-07T03:12:31;32.15;;;23.02;;
79139;SDS011;68546;59.142;37.948;2023-04-07T03:14:58;52.38;;;22.13;;
79139;SDS011;68546;59.142;37.948;2023-04-07T03:17:25;31.95;;;22.13;;
79139;SDS011;68546;59.142;37.948;2023-04-07T03:19:51;30.92;;;22.52;;
79139;SDS011;68546;59.142;37.948;2023-04-07T03:22:18;27.90;;;20.33;;
79139;SDS011;68546;59.142;37.948;2023-04-07T03:24:49;27.73;;;19.88;;
79139;SDS011;68546;59.142;37.948;2023-04-07T03:27:16;28.50;;;21.03;;
79139;SDS011;68546;59.142;37.948;2023-04-07T03:29:45;27.40;;;19.90;;
79139;SDS011;68546;59.142;37.948;2023-04-07T03:32:14;28.52;;;19.23;;
79139;SDS011;68546;59.142;37.948;2023-04-07T03:34:40;24.67;;;18.60;;
79139;SDS011;68546;59.142;37.948;2023-04-07T03:37:06;21.00;;;16.52;;
79139;SDS011;68546;59.142;37.948;2023-04-07T03:39:35;20.90;;;16.77;;
79139;SDS011;68546;59.142;37.948;2023-04-07T03:42:07;22.20;;;16.00;;
79139;SDS011;68546;59.142;37.948;2023-04-07T03:44:34;18.17;;;14.45;;
79139;SDS011;68546;59.142;37.948;2023-04-07T03:47:02;18.75;;;11.57;;
79139;SDS011;68546;59.142;37.948;2023-04-07T03:49:29;14.25;;;8.98;;
79139;SDS011;68546;59.142;37.948;2023-04-07T03:51:59;8.47;;;6.87;;
79139;SDS011;68546;59.142;37.948;2023-04-07T03:54:26;7.45;;;5.50;;
79139;SDS011;68546;59.142;37.948;2023-04-07T03:56:53;10.00;;;3.35;;
79139;SDS011;68546;59.142;37.948;2023-04-07T03:59:22;5.47;;;2.87;;
79139;SDS011;68546;59.142;37.948;2023-04-07T04:02:01;5.57;;;2.85;;
79139;SDS011;68546;59.142;37.948;2023-04-07T04:04:27;3.97;;;1.92;;
79139;SDS011;68546;59.142;37.948;2023-04-07T04:06:54;4.45;;;1.73;;
79139;SDS011;68546;59.142;37.948;2023-04-07T04:09:43;4.70;;;1.85;;
79139;SDS011;68546;59.142;37.948;2023-04-07T04:12:11;3.85;;;1.55;;
79139;SDS011;68546;59.142;37.948;2023-04-07T04:14:45;10.23;;;1.85;;
79139;SDS011;68546;59.142;37.948;2023-04-07T04:17:13;4.73;;;1.60;;
79139;SDS011;68546;59.142;37.948;2023-04-07T04:19:43;5.10;;;1.58;;
79139;SDS011;68546;59.142;37.948;2023-04-07T04:22:36;3.03;;;1.15;;
79139;SDS011;68546;59.142;37.948;2023-04-07T04:25:03;3.47;;;1.20;;
79139;SDS011;68546;59.142;37.948;2023-04-07T04:27:30;5.97;;;1.70;;
79139;SDS011;68546;59.142;37.948;2023-04-07T04:30:03;16.13;;;1.50;;
79139;SDS011;68546;59.142;37.948;2023-04-07T04:32:41;3.75;;;1.23;;
79139;SDS011;68546;59.142;37.948;2023-04-07T04:35:08;3.72;;;1.27;;
79139;SDS011;68546;59.142;37.948;2023-04-07T04:37:43;3.60;;;1.40;;
79139;SDS011;68546;59.142;37.948;2023-04-07T04:40:11;4.28;;;1.45;;
79139;SDS011;68546;59.142;37.948;2023-04-07T04:42:39;3.57;;;1.33;;
79139;SDS011;68546;59.142;37.948;2023-04-07T04:45:08;3.10;;;1.27;;
79139;SDS011;68546;59.142;37.948;2023-04-07T04:47:37;3.92;;;1.65;;
79139;SDS011;68546;59.142;37.948;2023-04-07T04:50:06;4.80;;;1.43;;
79139;SDS011;68546;59.142;37.948;2023-04-07T04:52:36;4.82;;;1.63;;
79139;SDS011;68546;59.142;37.948;2023-04-07T04:55:05;4.38;;;1.58;;
79139;SDS011;68546;59.142;37.948;2023-04-07T04:57:32;3.97;;;1.48;;
79139;SDS011;68546;59.142;37.948;2023-04-07T05:00:05;6.85;;;2.05;;
79139;SDS011;68546;59.142;37.948;2023-04-07T05:02:32;5.60;;;1.63;;
79139;SDS011;68546;59.142;37.948;2023-04-07T05:05:02;5.63;;;1.48;;
79139;SDS011;68546;59.142;37.948;2023-04-07T05:07:28;5.67;;;1.47;;
79139;SDS011;68546;59.142;37.948;2023-04-07T05:09:55;8.68;;;1.83;;
79139;SDS011;68546;59.142;37.948;2023-04-07T05:12:21;4.40;;;1.42;;
79139;SDS011;68546;59.142;37.948;2023-04-07T05:14:54;6.87;;;2.00;;
79139;SDS011;68546;59.142;37.948;2023-04-07T05:17:21;6.90;;;2.58;;
79139;SDS011;68546;59.142;37.948;2023-04-07T05:19:47;6.95;;;2.38;;
79139;SDS011;68546;59.142;37.948;2023-04-07T05:22:22;5.90;;;1.63;;
79139;SDS011;68546;59.142;37.948;2023-04-07T05:24:50;12.43;;;2.38;;
79139;SDS011;68546;59.142;37.948;2023-04-07T05:27:17;5.25;;;1.77;;
79139;SDS011;68546;59.142;37.948;2023-04-07T05:29:47;9.00;;;3.20;;
79139;SDS011;68546;59.142;37.948;2023-04-07T05:32:23;3.77;;;1.57;;
79139;SDS011;68546;59.142;37.948;2023-04-07T05:34:50;9.38;;;1.55;;
79139;SDS011;68546;59.142;37.948;2023-04-07T05:37:17;15.23;;;1.60;;
79139;SDS011;68546;59.142;37.948;2023-04-07T05:39:44;5.77;;;1.83;;
79139;SDS011;68546;59.142;37.948;2023-04-07T05:42:12;4.45;;;1.33;;
79139;SDS011;68546;59.142;37.948;2023-04-07T05:44:40;4.03;;;1.70;;
79139;SDS011;68546;59.142;37.948;2023-04-07T05:47:07;3.75;;;1.17;;
79139;SDS011;68546;59.142;37.948;2023-04-07T05:49:36;8.02;;;2.22;;
79139;SDS011;68546;59.142;37.948;2023-04-07T05:52:06;4.57;;;1.98;;
79139;SDS011;68546;59.142;37.948;2023-04-07T05:54:38;6.93;;;2.95;;
79139;SDS011;68546;59.142;37.948;2023-04-07T05:57:06;6.87;;;1.90;;
79139;SDS011;68546;59.142;37.948;2023-04-07T05:59:34;8.65;;;3.47;;
79139;SDS011;68546;59.142;37.948;2023-04-07T06:02:02;8.32;;;1.63;;
79139;SDS011;68546;59.142;37.948;2023-04-07T06:04:29;4.10;;;1.27;;
79139;SDS011;68546;59.142;37.948;2023-04-07T06:06:55;3.13;;;1.05;;
79139;SDS011;68546;59.142;37.948;2023-04-07T06:09:22;3.70;;;1.40;;
79139;SDS011;68546;59.142;37.948;2023-04-07T06:11:48;5.95;;;2.28;;
79139;SDS011;68546;59.142;37.948;2023-04-07T06:14:16;4.60;;;1.43;;
79139;SDS011;68546;59.142;37.948;2023-04-07T06:16:43;4.88;;;1.42;;
79139;SDS011;68546;59.142;37.948;2023-04-07T06:19:10;6.68;;;1.52;;
79139;SDS011;68546;59.142;37.948;2023-04-07T06:21:36;4.93;;;1.67;;
79139;SDS011;68546;59.142;37.948;2023-04-07T06:24:04;4.63;;;1.37;;
79139;SDS011;68546;59.142;37.948;2023-04-07T06:26:34;4.00;;;1.52;;
79139;SDS011;68546;59.142;37.948;2023-04-07T06:29:00;10.25;;;1.80;;
79139;SDS011;68546;59.142;37.948;2023-04-07T06:31:27;6.75;;;1.63;;
79139;SDS011;68546;59.142;37.948;2023-04-07T06:33:53;3.00;;;1.15;;
79139;SDS011;68546;59.142;37.948;2023-04-07T06:36:20;4.00;;;1.25;;
79139;SDS011;68546;59.142;37.948;2023-04-07T06:38:46;18.92;;;1.52;;
79139;SDS011;68546;59.142;37.948;2023-04-07T06:41:12;7.70;;;1.77;;
79139;SDS011;68546;59.142;37.948;2023-04-07T06:43:42;5.20;;;1.15;;
79139;SDS011;68546;59.142;37.948;2023-04-07T06:46:12;3.90;;;1.33;;
79139;SDS011;68546;59.142;37.948;2023-04-07T06:48:38;4.25;;;1.15;;
79139;SDS011;68546;59.142;37.948;2023-04-07T06:51:06;3.67;;;1.10;;
79139;SDS011;68546;59.142;37.948;2023-04-07T06:53:32;6.20;;;1.52;;
79139;SDS011;68546;59.142;37.948;2023-04-07T06:56:06;8.95;;;1.63;;
79139;SDS011;68546;59.142;37.948;2023-04-07T06:58:36;4.40;;;1.08;;
79139;SDS011;68546;59.142;37.948;2023-04-07T07:01:03;7.70;;;1.57;;
79139;SDS011;68546;59.142;37.948;2023-04-07T07:03:31;6.82;;;1.48;;
79139;SDS011;68546;59.142;37.948;2023-04-07T07:05:58;1.95;;;0.75;;
79139;SDS011;68546;59.142;37.948;2023-04-07T07:08:25;6.45;;;1.65;;
79139;SDS011;68546;59.142;37.948;2023-04-07T07:10:52;5.43;;;1.23;;
79139;SDS011;68546;59.142;37.948;2023-04-07T07:13:21;12.93;;;1.63;;
79139;SDS011;68546;59.142;37.948;2023-04-07T07:15:50;3.85;;;1.08;;
79139;SDS011;68546;59.142;37.948;2023-04-07T07:18:16;4.97;;;1.13;;
79139;SDS011;68546;59.142;37.948;2023-04-07T07:20:43;5.18;;;1.67;;
79139;SDS011;68546;59.142;37.948;2023-04-07T07:23:10;4.27;;;1.40;;
79139;SDS011;68546;59.142;37.948;2023-04-07T07:25:36;7.00;;;3.10;;
79139;SDS011;68546;59.142;37.948;2023-04-07T07:28:03;5.28;;;1.90;;
79139;SDS011;68546;59.142;37.948;2023-04-07T07:30:29;11.63;;;1.73;;
79139;SDS011;68546;59.142;37.948;2023-04-07T07:32:56;6.67;;;2.70;;
79139;SDS011;68546;59.142;37.948;2023-04-07T07:35:22;5.30;;;1.25;;
79139;SDS011;68546;59.142;37.948;2023-04-07T07:37:50;9.13;;;1.80;;
79139;SDS011;68546;59.142;37.948;2023-04-07T07:40:17;24.88;;;1.50;;
79139;SDS011;68546;59.142;37.948;2023-04-07T07:42:44;3.85;;;1.05;;
79139;SDS011;68546;59.142;37.948;2023-04-07T07:45:11;3.20;;;1.13;;
79139;SDS011;68546;59.142;37.948;2023-04-07T07:47:38;3.08;;;0.88;;
79139;SDS011;68546;59.142;37.948;2023-04-07T07:50:05;8.65;;;1.52;;
79139;SDS011;68546;59.142;37.948;2023-04-07T07:52:32;3.67;;;1.30;;
79139;SDS011;68546;59.142;37.948;2023-04-07T07:54:58;5.07;;;1.33;;
79139;SDS011;68546;59.142;37.948;2023-04-07T07:57:24;4.13;;;1.13;;
79139;SDS011;68546;59.142;37.948;2023-04-07T07:59:51;4.70;;;1.17;;
79139;SDS011;68546;59.142;37.948;2023-04-07T08:02:18;4.50;;;1.48;;
79139;SDS011;68546;59.142;37.948;2023-04-07T08:04:44;4.57;;;1.05;;
79139;SDS011;68546;59.142;37.948;2023-04-07T08:07:10;9.45;;;4.20;;
79139;SDS011;68546;59.142;37.948;2023-04-07T08:09:37;10.93;;;5.40;;
79139;SDS011;68546;59.142;37.948;2023-04-07T08:12:03;7.40;;;2.17;;
79139;SDS011;68546;59.142;37.948;2023-04-07T08:14:30;5.30;;;2.03;;
79139;SDS011;68546;59.142;37.948;2023-04-07T08:16:56;9.90;;;1.95;;
79139;SDS011;68546;59.142;37.948;2023-04-07T08:19:22;3.90;;;1.20;;
79139;SDS011;68546;59.142;37.948;2023-04-07T08:21:49;9.63;;;1.43;;
79139;SDS011;68546;59.142;37.948;2023-04-07T08:24:15;7.70;;;1.88;;
79139;SDS011;68546;59.142;37.948;2023-04-07T08:26:42;4.35;;;1.40;;
79139;SDS011;68546;59.142;37.948;2023-04-07T08:29:10;3.83;;;1.33;;
79139;SDS011;68546;59.142;37.948;2023-04-07T08:31:36;4.32;;;1.13;;
79139;SDS011;68546;59.142;37.948;2023-04-07T08:34:02;3.70;;;1.10;;
79139;SDS011;68546;59.142;37.948;2023-04-07T08:36:29;4.80;;;1.17;;
79139;SDS011;68546;59.142;37.948;2023-04-07T08:38:56;3.03;;;0.98;;
79139;SDS011;68546;59.142;37.948;2023-04-07T08:41:26;5.18;;;1.98;;
79139;SDS011;68546;59.142;37.948;2023-04-07T08:44:02;3.65;;;1.13;;
79139;SDS011;68546;59.142;37.948;2023-04-07T08:46:29;4.30;;;1.33;;
79139;SDS011;68546;59.142;37.948;2023-04-07T08:48:56;7.00;;;1.10;;
79139;SDS011;68546;59.142;37.948;2023-04-07T08:51:26;7.93;;;1.25;;
79139;SDS011;68546;59.142;37.948;2023-04-07T08:56:36;3.70;;;1.30;;
79139;SDS011;68546;59.142;37.948;2023-04-07T08:59:08;7.07;;;1.27;;
79139;SDS011;68546;59.142;37.948;2023-04-07T09:01:38;11.50;;;1.23;;
79139;SDS011;68546;59.142;37.948;2023-04-07T09:04:06;3.40;;;1.20;;
79139;SDS011;68546;59.142;37.948;2023-04-07T09:06:35;4.55;;;1.17;;
79139;SDS011;68546;59.142;37.948;2023-04-07T09:09:02;5.15;;;1.15;;
79139;SDS011;68546;59.142;37.948;2023-04-07T09:11:33;4.30;;;1.07;;
79139;SDS011;68546;59.142;37.948;2023-04-07T09:14:01;3.47;;;1.00;;
79139;SDS011;68546;59.142;37.948;2023-04-07T09:16:27;4.38;;;1.13;;
79139;SDS011;68546;59.142;37.948;2023-04-07T09:18:57;3.90;;;1.27;;
79139;SDS011;68546;59.142;37.948;2023-04-07T09:21:23;3.58;;;1.13;;
79139;SDS011;68546;59.142;37.948;2023-04-07T09:23:51;4.00;;;1.23;;
79139;SDS011;68546;59.142;37.948;2023-04-07T09:26:24;9.40;;;1.08;;
79139;SDS011;68546;59.142;37.948;2023-04-07T09:28:53;4.97;;;1.00;;
79139;SDS011;68546;59.142;37.948;2023-04-07T09:31:23;4.30;;;1.23;;
79139;SDS011;68546;59.142;37.948;2023-04-07T09:34:28;5.15;;;1.55;;
79139;SDS011;68546;59.142;37.948;2023-04-07T09:36:56;4.40;;;1.27;;
79139;SDS011;68546;59.142;37.948;2023-04-07T09:39:23;5.07;;;1.48;;
79139;SDS011;68546;59.142;37.948;2023-04-07T09:41:50;3.10;;;0.95;;
79139;SDS011;68546;59.142;37.948;2023-04-07T09:44:17;3.53;;;0.95;;
79139;SDS011;68546;59.142;37.948;2023-04-07T09:47:02;4.85;;;1.02;;
79139;SDS011;68546;59.142;37.948;2023-04-07T09:49:29;3.17;;;0.93;;
79139;SDS011;68546;59.142;37.948;2023-04-07T09:51:56;4.75;;;1.05;;
79139;SDS011;68546;59.142;37.948;2023-04-07T09:54:31;5.20;;;1.25;;
79139;SDS011;68546;59.142;37.948;2023-04-07T09:57:04;2.42;;;0.82;;
79139;SDS011;68546;59.142;37.948;2023-04-07T09:59:32;3.17;;;0.93;;
79139;SDS011;68546;59.142;37.948;2023-04-07T10:02:00;3.63;;;1.20;;
79139;SDS011;68546;59.142;37.948;2023-04-07T10:04:27;3.38;;;0.88;;
79139;SDS011;68546;59.142;37.948;2023-04-07T10:06:54;4.93;;;1.27;;
79139;SDS011;68546;59.142;37.948;2023-04-07T10:09:22;4.68;;;1.05;;
79139;SDS011;68546;59.142;37.948;2023-04-07T10:11:50;2.72;;;0.82;;
79139;SDS011;68546;59.142;37.948;2023-04-07T10:14:18;9.77;;;1.10;;
79139;SDS011;68546;59.142;37.948;2023-04-07T10:16:46;3.03;;;0.85;;
79139;SDS011;68546;59.142;37.948;2023-04-07T10:19:13;3.03;;;0.88;;
79139;SDS011;68546;59.142;37.948;2023-04-07T10:21:41;4.07;;;0.95;;
79139;SDS011;68546;59.142;37.948;2023-04-07T10:27:04;6.17;;;1.10;;
79139;SDS011;68546;59.142;37.948;2023-04-07T10:29:34;7.55;;;1.42;;
79139;SDS011;68546;59.142;37.948;2023-04-07T10:32:04;5.80;;;1.27;;
79139;SDS011;68546;59.142;37.948;2023-04-07T10:35:04;3.55;;;0.95;;
79139;SDS011;68546;59.142;37.948;2023-04-07T10:37:24;6.43;;;1.40;;
79139;SDS011;68546;59.142;37.948;2023-04-07T10:39:52;5.77;;;1.17;;
79139;SDS011;68546;59.142;37.948;2023-04-07T10:42:51;8.07;;;1.20;;
79139;SDS011;68546;59.142;37.948;2023-04-07T10:45:18;3.08;;;1.00;;
79139;SDS011;68546;59.142;37.948;2023-04-07T10:48:16;3.03;;;0.90;;
79139;SDS011;68546;59.142;37.948;2023-04-07T10:50:44;2.78;;;0.70;;
79139;SDS011;68546;59.142;37.948;2023-04-07T10:53:12;2.67;;;0.67;;
79139;SDS011;68546;59.142;37.948;2023-04-07T10:55:43;3.00;;;0.70;;
79139;SDS011;68546;59.142;37.948;2023-04-07T11:00:41;5.95;;;1.05;;
79139;SDS011;68546;59.142;37.948;2023-04-07T11:03:11;8.65;;;1.33;;
79139;SDS011;68546;59.142;37.948;2023-04-07T11:05:39;4.60;;;1.03;;
79139;SDS011;68546;59.142;37.948;2023-04-07T11:08:06;5.82;;;1.33;;
79139;SDS011;68546;59.142;37.948;2023-04-07T11:10:33;3.72;;;1.05;;
79139;SDS011;68546;59.142;37.948;2023-04-07T11:13:01;6.55;;;1.58;;
79139;SDS011;68546;59.142;37.948;2023-04-07T11:15:29;3.40;;;0.82;;
79139;SDS011;68546;59.142;37.948;2023-04-07T11:20:41;3.60;;;1.10;;
79139;SDS011;68546;59.142;37.948;2023-04-07T11:23:13;3.47;;;1.00;;
79139;SDS011;68546;59.142;37.948;2023-04-07T11:25:41;4.22;;;1.25;;
79139;SDS011;68546;59.142;37.948;2023-04-07T11:28:09;6.15;;;1.17;;
79139;SDS011;68546;59.142;37.948;2023-04-07T11:30:37;9.40;;;1.13;;
79139;SDS011;68546;59.142;37.948;2023-04-07T11:33:13;3.58;;;0.82;;
79139;SDS011;68546;59.142;37.948;2023-04-07T11:35:59;3.88;;;1.20;;
79139;SDS011;68546;59.142;37.948;2023-04-07T11:38:27;4.15;;;1.17;;
79139;SDS011;68546;59.142;37.948;2023-04-07T11:40:55;4.50;;;0.98;;
79139;SDS011;68546;59.142;37.948;2023-04-07T11:43:22;3.50;;;0.93;;
79139;SDS011;68546;59.142;37.948;2023-04-07T11:46:07;3.17;;;1.15;;
79139;SDS011;68546;59.142;37.948;2023-04-07T11:48:40;3.53;;;1.05;;
79139;SDS011;68546;59.142;37.948;2023-04-07T11:51:17;4.03;;;1.00;;
79139;SDS011;68546;59.142;37.948;2023-04-07T11:53:44;8.82;;;1.15;;
79139;SDS011;68546;59.142;37.948;2023-04-07T11:56:12;3.77;;;0.93;;
79139;SDS011;68546;59.142;37.948;2023-04-07T11:58:47;7.78;;;1.10;;
79139;SDS011;68546;59.142;37.948;2023-04-07T12:01:14;6.75;;;1.60;;
79139;SDS011;68546;59.142;37.948;2023-04-07T12:04:03;5.47;;;1.55;;
79139;SDS011;68546;59.142;37.948;2023-04-07T12:06:30;6.07;;;1.23;;
79139;SDS011;68546;59.142;37.948;2023-04-07T12:09:04;3.60;;;1.00;;
79139;SDS011;68546;59.142;37.948;2023-04-07T12:11:31;7.63;;;1.13;;
79139;SDS011;68546;59.142;37.948;2023-04-07T12:13:58;9.45;;;1.30;;
79139;SDS011;68546;59.142;37.948;2023-04-07T12:16:25;5.28;;;1.13;;
79139;SDS011;68546;59.142;37.948;2023-04-07T12:18:52;7.25;;;1.25;;
79139;SDS011;68546;59.142;37.948;2023-04-07T12:21:19;3.43;;;0.87;;
79139;SDS011;68546;59.142;37.948;2023-04-07T12:23:45;4.05;;;1.10;;
79139;SDS011;68546;59.142;37.948;2023-04-07T12:26:13;4.47;;;0.98;;
79139;SDS011;68546;59.142;37.948;2023-04-07T12:28:39;3.95;;;0.95;;
79139;SDS011;68546;59.142;37.948;2023-04-07T12:31:05;4.45;;;1.02;;
79139;SDS011;68546;59.142;37.948;2023-04-07T12:33:31;4.23;;;1.20;;
79139;SDS011;68546;59.142;37.948;2023-04-07T12:35:58;4.20;;;1.27;;
79139;SDS011;68546;59.142;37.948;2023-04-07T12:38:24;5.55;;;1.30;;
79139;SDS011;68546;59.142;37.948;2023-04-07T12:40:50;6.47;;;1.40;;
79139;SDS011;68546;59.142;37.948;2023-04-07T12:43:17;3.78;;;1.10;;
79139;SDS011;68546;59.142;37.948;2023-04-07T12:45:44;5.17;;;1.17;;
79139;SDS011;68546;59.142;37.948;2023-04-07T12:48:10;3.45;;;0.90;;
79139;SDS011;68546;59.142;37.948;2023-04-07T12:50:37;5.40;;;1.25;;
79139;SDS011;68546;59.142;37.948;2023-04-07T12:53:03;3.88;;;0.95;;
79139;SDS011;68546;59.142;37.948;2023-04-07T12:55:31;3.50;;;0.90;;
79139;SDS011;68546;59.142;37.948;2023-04-07T12:57:58;4.43;;;0.77;;
79139;SDS011;68546;59.142;37.948;2023-04-07T13:00:25;6.70;;;1.55;;
79139;SDS011;68546;59.142;37.948;2023-04-07T13:02:51;3.70;;;1.02;;
79139;SDS011;68546;59.142;37.948;2023-04-07T13:05:18;7.63;;;0.80;;
79139;SDS011;68546;59.142;37.948;2023-04-07T13:07:44;2.35;;;0.68;;
79139;SDS011;68546;59.142;37.948;2023-04-07T13:10:11;5.50;;;1.00;;
79139;SDS011;68546;59.142;37.948;2023-04-07T13:12:37;6.32;;;1.33;;
79139;SDS011;68546;59.142;37.948;2023-04-07T13:15:04;5.15;;;1.00;;
79139;SDS011;68546;59.142;37.948;2023-04-07T13:17:32;10.68;;;1.15;;
79139;SDS011;68546;59.142;37.948;2023-04-07T13:20:04;5.43;;;1.05;;
79139;SDS011;68546;59.142;37.948;2023-04-07T13:22:31;3.67;;;0.87;;
79139;SDS011;68546;59.142;37.948;2023-04-07T13:24:57;18.38;;;1.67;;
79139;SDS011;68546;59.142;37.948;2023-04-07T13:27:24;3.65;;;0.80;;
79139;SDS011;68546;59.142;37.948;2023-04-07T13:29:50;2.97;;;0.90;;
79139;SDS011;68546;59.142;37.948;2023-04-07T13:32:16;3.65;;;0.88;;
79139;SDS011;68546;59.142;37.948;2023-04-07T13:34:43;4.17;;;1.20;;
79139;SDS011;68546;59.142;37.948;2023-04-07T13:37:09;6.05;;;1.05;;
79139;SDS011;68546;59.142;37.948;2023-04-07T13:39:36;5.70;;;1.10;;
79139;SDS011;68546;59.142;37.948;2023-04-07T13:42:02;4.63;;;1.13;;
79139;SDS011;68546;59.142;37.948;2023-04-07T13:44:29;3.80;;;1.02;;
79139;SDS011;68546;59.142;37.948;2023-04-07T13:46:55;3.63;;;0.93;;
79139;SDS011;68546;59.142;37.948;2023-04-07T13:49:24;6.82;;;0.88;;
79139;SDS011;68546;59.142;37.948;2023-04-07T13:51:51;2.65;;;0.82;;
79139;SDS011;68546;59.142;37.948;2023-04-07T13:54:17;4.47;;;1.25;;
79139;SDS011;68546;59.142;37.948;2023-04-07T13:56:43;5.47;;;1.08;;
79139;SDS011;68546;59.142;37.948;2023-04-07T13:59:10;5.70;;;1.33;;
79139;SDS011;68546;59.142;37.948;2023-04-07T14:01:36;6.00;;;1.42;;
79139;SDS011;68546;59.142;37.948;2023-04-07T14:04:04;7.32;;;1.08;;
79139;SDS011;68546;59.142;37.948;2023-04-07T14:06:31;5.68;;;0.90;;
79139;SDS011;68546;59.142;37.948;2023-04-07T14:08:57;3.08;;;0.80;;
79139;SDS011;68546;59.142;37.948;2023-04-07T14:11:23;3.80;;;1.10;;
79139;SDS011;68546;59.142;37.948;2023-04-07T14:13:51;4.68;;;1.20;;
79139;SDS011;68546;59.142;37.948;2023-04-07T14:16:17;5.07;;;1.23;;
79139;SDS011;68546;59.142;37.948;2023-04-07T14:18:44;7.72;;;1.00;;
79139;SDS011;68546;59.142;37.948;2023-04-07T14:21:11;3.15;;;0.88;;
79139;SDS011;68546;59.142;37.948;2023-04-07T14:23:38;4.43;;;1.10;;
79139;SDS011;68546;59.142;37.948;2023-04-07T14:26:08;7.30;;;0.90;;
79139;SDS011;68546;59.142;37.948;2023-04-07T14:28:35;3.45;;;1.00;;
79139;SDS011;68546;59.142;37.948;2023-04-07T14:31:02;9.07;;;1.67;;
79139;SDS011;68546;59.142;37.948;2023-04-07T14:33:28;3.63;;;1.10;;
79139;SDS011;68546;59.142;37.948;2023-04-07T14:35:55;6.30;;;1.20;;
79139;SDS011;68546;59.142;37.948;2023-04-07T14:38:22;6.90;;;1.83;;
79139;SDS011;68546;59.142;37.948;2023-04-07T14:40:50;4.70;;;1.17;;
79139;SDS011;68546;59.142;37.948;2023-04-07T14:43:17;6.43;;;1.10;;
79139;SDS011;68546;59.142;37.948;2023-04-07T14:45:44;4.05;;;1.30;;
79139;SDS011;68546;59.142;37.948;2023-04-07T14:48:10;6.77;;;1.60;;
79139;SDS011;68546;59.142;37.948;2023-04-07T14:50:38;5.25;;;1.27;;
79139;SDS011;68546;59.142;37.948;2023-04-07T14:53:05;7.72;;;2.03;;
79139;SDS011;68546;59.142;37.948;2023-04-07T14:55:31;9.25;;;2.40;;
79139;SDS011;68546;59.142;37.948;2023-04-07T14:57:59;4.32;;;1.05;;
79139;SDS011;68546;59.142;37.948;2023-04-07T15:00:25;7.33;;;1.20;;
79139;SDS011;68546;59.142;37.948;2023-04-07T15:02:53;4.30;;;1.27;;